Main page
METAR-TAF:

METAR-TAF

Airports :

Algiers, Algeria

Houari Boumediene Airport

latitude: 36-43N, longitude: 003-15E, elevation: 25 m

Current weather observation

The report was made 32 minutes ago, at 20:30 UTC
Wind 5 kt from the South/Southwest
Temperature 11°C
Humidity 94%
Pressure 1025 hPa
Visibility 10 km or more
Few clouds at a height of 2000 ft

METAR: DAAG 202030Z 20005KT 9999 FEW020 11/10 Q1025

Time: 22:02 (21:02 UTC)

Forecast

The report was made 4 hours and 2 minutes ago, at 17:00 UTC
Forecast valid from 20 at 18 UTC to 21 at 18 UTC
Wind 10 kt from the West
Visibility 10 km or more
Scattered clouds at a height of 2300 ft
Temporary
from 20 at 18 UTC to 20 at 22 UTC
Few clouds at a height of 2000 ft, Towering cumulus.
Becoming
from 21 at 09 UTC to 21 at 12 UTC
Wind 12 kt from the North/Northwest

TAF: DAAG 201700Z 2018/2118 26010KT 9999 SCT023 TEMPO 2018/2022 FEW020TCU BECMG 2109/2112 34012KT

Weather observations and forecasts of more than 4000 airports (METAR and TAF reports).

The available stations are represented by yellow and red dots on the map.

Hover mouse over dot to see the name of the station.

Then click to see weather observations and forecasts.

To change the map : click on the green buttons with a black cross to zoom in, on the green button with a dash to zoom out, or on the green arrows for adjacent maps.


METAR-TAF: